createdAt,value
2019-04-21T00:00:24.062Z,5.13
2019-04-21T00:02:50.918Z,4.23
2019-04-21T00:05:32.858Z,4.20
2019-04-21T00:08:10.758Z,4.37
2019-04-21T00:10:35.798Z,4.70
2019-04-21T00:12:53.466Z,4.10
2019-04-21T00:15:19.444Z,4.50
2019-04-21T00:17:34.758Z,4.63
2019-04-21T00:20:13.778Z,4.33
2019-04-21T00:22:41.909Z,4.80
2019-04-21T00:25:08.963Z,4.83
2019-04-21T00:27:38.422Z,4.50
2019-04-21T00:30:12.491Z,4.80
2019-04-21T00:32:27.915Z,4.80
2019-04-21T00:34:50.442Z,4.87
2019-04-21T00:37:18.905Z,4.50
2019-04-21T00:40:00.014Z,4.80
2019-04-21T00:42:22.811Z,5.10
2019-04-21T00:44:51.173Z,4.80
2019-04-21T00:47:15.644Z,4.80
2019-04-21T00:49:45.356Z,5.10
2019-04-21T00:52:45.128Z,4.57
2019-04-21T00:55:18.130Z,4.13
2019-04-21T00:57:38.855Z,4.60
2019-04-21T00:59:59.706Z,4.50
2019-04-21T01:02:27.905Z,4.83
2019-04-21T01:05:01.653Z,5.00
2019-04-21T01:07:19.427Z,4.40
2019-04-21T01:09:43.303Z,4.83
2019-04-21T01:12:12.455Z,5.47
2019-04-21T01:14:50.080Z,5.20
2019-04-21T01:17:15.697Z,5.50
2019-04-21T01:19:36.478Z,5.10
2019-04-21T01:21:39.984Z,5.13
2019-04-21T01:24:13.395Z,4.97
2019-04-21T01:26:43.760Z,5.33
2019-04-21T01:29:15.499Z,5.40
2019-04-21T01:31:43.878Z,5.07
2019-04-21T01:34:14.821Z,4.90
2019-04-21T01:36:41.526Z,5.30
2019-04-21T01:39:18.099Z,4.73
2019-04-21T01:41:42.874Z,4.70
2019-04-21T01:44:01.544Z,4.90
2019-04-21T01:46:28.379Z,4.20
2019-04-21T01:48:53.769Z,4.03
2019-04-21T01:51:23.523Z,4.63
2019-04-21T01:54:07.645Z,4.57
2019-04-21T01:56:44.854Z,4.03
2019-04-21T01:59:00.690Z,4.37
2019-04-21T02:01:46.244Z,4.40
2019-04-21T02:04:02.744Z,4.53
2019-04-21T02:06:36.209Z,3.93
2019-04-21T02:08:58.049Z,4.70
2019-04-21T02:11:30.053Z,4.10
2019-04-21T02:14:02.013Z,4.60
2019-04-21T02:16:24.936Z,4.20
2019-04-21T02:18:43.774Z,4.43
2019-04-21T02:21:04.140Z,4.50
2019-04-21T02:23:46.345Z,4.60
2019-04-21T02:26:09.287Z,4.73
2019-04-21T02:28:45.154Z,4.33
2019-04-21T02:31:29.091Z,4.17
2019-04-21T02:33:49.582Z,4.53
2019-04-21T02:46:02.066Z,4.90
2019-04-21T02:48:28.618Z,4.83
2019-04-21T02:53:21.188Z,4.20
2019-04-21T02:55:44.208Z,4.70
2019-04-21T02:58:16.003Z,4.20
2019-04-21T03:00:59.720Z,4.63
2019-04-21T03:03:37.916Z,4.30
2019-04-21T03:06:16.801Z,5.10
2019-04-21T03:08:53.235Z,4.80
2019-04-21T03:11:14.065Z,4.40
2019-04-21T03:16:20.168Z,4.60
2019-04-21T03:18:42.080Z,4.23
2019-04-21T03:21:16.501Z,4.43
2019-04-21T03:23:29.727Z,4.57
2019-04-21T03:26:00.824Z,4.50
2019-04-21T03:28:27.838Z,4.50
2019-04-21T03:36:12.959Z,4.90
2019-04-21T03:38:17.249Z,5.20
2019-04-21T03:40:32.317Z,4.70
2019-04-21T03:43:04.910Z,4.57
2019-04-21T03:45:39.297Z,4.50
2019-04-21T03:50:29.605Z,4.77
2019-04-21T03:53:00.834Z,4.83
2019-04-21T03:55:48.917Z,5.20
2019-04-21T04:00:35.254Z,5.07
2019-04-21T04:02:55.666Z,4.90
2019-04-21T04:08:22.790Z,5.07
2019-04-21T04:10:31.386Z,5.20
2019-04-21T04:13:02.816Z,5.10
2019-04-21T04:17:46.837Z,4.90
2019-04-21T04:20:22.459Z,5.20
2019-04-21T04:22:52.165Z,5.20
2019-04-21T04:25:11.216Z,4.70
2019-04-21T04:27:52.596Z,5.40
2019-04-21T04:30:10.301Z,4.93
2019-04-21T04:32:40.609Z,5.00
2019-04-21T04:35:03.266Z,4.80
2019-04-21T04:45:26.535Z,4.93
2019-04-21T04:47:46.612Z,5.10
2019-04-21T04:50:15.497Z,5.40
2019-04-21T04:53:07.681Z,4.50
2019-04-21T04:55:01.785Z,5.10
2019-04-21T04:57:36.596Z,5.07
2019-04-21T05:02:30.488Z,4.80
2019-04-21T05:04:54.933Z,4.67
2019-04-21T05:07:27.136Z,5.07
2019-04-21T05:09:50.533Z,5.57
2019-04-21T05:12:24.805Z,4.73
2019-04-21T05:14:41.116Z,5.20
2019-04-21T05:17:10.802Z,5.43
2019-04-21T05:19:39.011Z,5.33
2019-04-21T05:21:54.676Z,5.03
2019-04-21T05:24:17.828Z,5.37
2019-04-21T05:26:46.237Z,4.80
2019-04-21T05:29:05.270Z,4.70
2019-04-21T05:31:52.415Z,4.97
2019-04-21T05:34:17.056Z,18.03
2019-04-21T05:36:52.385Z,16.40
2019-04-21T05:39:23.395Z,6.90
2019-04-21T05:41:48.899Z,8.20
2019-04-21T05:44:37.973Z,8.03
2019-04-21T05:47:05.536Z,7.03
2019-04-21T05:49:42.064Z,6.17
2019-04-21T05:52:04.061Z,18.70
2019-04-21T05:56:59.831Z,27.17
2019-04-21T05:59:26.003Z,23.23
2019-04-21T06:02:09.006Z,20.30
2019-04-21T06:04:38.613Z,14.03
2019-04-21T06:07:02.086Z,12.07
2019-04-21T06:09:19.012Z,11.50
2019-04-21T06:11:42.384Z,10.33
2019-04-21T06:14:14.025Z,7.47
2019-04-21T06:16:43.075Z,11.83
2019-04-21T06:19:06.689Z,18.67
2019-04-21T06:21:35.535Z,11.50
2019-04-21T06:23:57.391Z,5.63
2019-04-21T06:26:52.093Z,5.03
2019-04-21T06:28:50.250Z,5.00
2019-04-21T06:31:33.791Z,7.23
2019-04-21T06:39:01.754Z,5.07
2019-04-21T06:41:25.005Z,9.67
2019-04-21T06:43:48.577Z,7.90
2019-04-21T06:46:22.878Z,7.70
2019-04-21T06:48:44.121Z,6.07
2019-04-21T06:51:09.005Z,5.60
2019-04-21T06:53:37.700Z,5.60
2019-04-21T06:56:00.140Z,5.13
2019-04-21T06:58:25.235Z,4.93
2019-04-21T07:00:50.531Z,5.07
2019-04-21T07:03:29.426Z,5.07
2019-04-21T07:05:51.980Z,5.00
2019-04-21T07:08:32.757Z,4.90
2019-04-21T07:10:37.032Z,5.10
2019-04-21T07:13:03.295Z,5.10
2019-04-21T07:15:37.028Z,5.10
2019-04-21T07:17:57.992Z,5.30
2019-04-21T07:20:28.274Z,10.20
2019-04-21T07:22:57.259Z,9.10
2019-04-21T07:25:22.644Z,4.97
2019-04-21T07:30:22.555Z,4.77
2019-04-21T07:32:47.514Z,4.80
2019-04-21T07:35:09.981Z,5.00
2019-04-21T07:37:35.090Z,4.30
2019-04-21T07:40:01.795Z,4.60
2019-04-21T07:42:23.856Z,4.20
2019-04-21T07:44:54.784Z,4.00
2019-04-21T07:47:28.432Z,4.07
2019-04-21T07:50:03.394Z,4.30
2019-04-21T07:52:52.109Z,4.67
2019-04-21T07:57:35.162Z,4.23
2019-04-21T08:05:08.822Z,8.10
2019-04-21T08:07:37.600Z,4.83
2019-04-21T08:09:51.031Z,4.03
2019-04-21T08:12:16.013Z,3.87
2019-04-21T08:14:51.785Z,4.30
2019-04-21T08:17:16.704Z,4.33
2019-04-21T08:19:35.889Z,4.20
2019-04-21T08:22:42.650Z,4.23
2019-04-21T08:24:51.861Z,4.10
2019-04-21T08:27:17.735Z,4.30
2019-04-21T08:29:49.818Z,4.10
2019-04-21T08:32:09.783Z,3.90
2019-04-21T08:34:34.844Z,4.03
2019-04-21T08:36:57.408Z,4.10
2019-04-21T08:39:32.922Z,5.67
2019-04-21T08:41:58.759Z,6.97
2019-04-21T08:44:26.187Z,3.90
2019-04-21T08:46:52.794Z,3.80
2019-04-21T08:49:15.022Z,3.43
2019-04-21T08:51:52.239Z,3.43
2019-04-21T08:54:15.168Z,3.50
2019-04-21T08:56:54.673Z,3.60
2019-04-21T08:59:31.247Z,3.50
2019-04-21T09:01:55.600Z,3.67
2019-04-21T09:04:23.425Z,3.43
2019-04-21T09:09:27.850Z,3.17
2019-04-21T09:11:49.881Z,3.40
2019-04-21T09:14:13.408Z,3.43
2019-04-21T09:16:36.981Z,3.20
2019-04-21T09:18:59.499Z,2.93
2019-04-21T09:21:31.771Z,3.60
2019-04-21T09:24:10.068Z,3.20
2019-04-21T09:26:34.009Z,2.80
2019-04-21T09:28:48.171Z,2.50
2019-04-21T09:31:06.356Z,2.60
2019-04-21T09:33:37.736Z,2.30
2019-04-21T09:36:02.575Z,2.97
2019-04-21T09:38:33.843Z,2.70
2019-04-21T09:40:54.488Z,2.40
2019-04-21T09:43:25.665Z,2.30
2019-04-21T09:45:45.383Z,2.77
2019-04-21T09:48:17.107Z,2.50
2019-04-21T09:50:39.807Z,2.77
2019-04-21T09:53:16.953Z,2.70
2019-04-21T09:55:43.984Z,2.70
2019-04-21T09:58:12.718Z,2.43
2019-04-21T10:00:30.887Z,2.70
2019-04-21T10:03:00.835Z,2.77
2019-04-21T10:05:21.447Z,2.60
2019-04-21T10:07:48.943Z,2.37
2019-04-21T10:10:15.060Z,2.70
2019-04-21T10:12:43.278Z,2.47
2019-04-21T10:15:10.538Z,2.90
2019-04-21T10:17:39.536Z,2.37
2019-04-21T10:20:07.181Z,2.60
2019-04-21T10:22:35.012Z,2.30
2019-04-21T10:25:00.955Z,2.80
2019-04-21T10:27:29.156Z,3.03
2019-04-21T10:29:56.104Z,2.70
2019-04-21T10:32:25.183Z,2.60
2019-04-21T10:34:49.618Z,2.17
2019-04-21T10:37:16.691Z,2.33
2019-04-21T10:39:43.170Z,2.20
2019-04-21T10:42:11.279Z,2.43
2019-04-21T10:44:37.112Z,2.37
2019-04-21T10:47:04.785Z,2.40
2019-04-21T10:49:30.979Z,2.40
2019-04-21T10:51:59.022Z,2.53
2019-04-21T10:54:26.099Z,2.33
2019-04-21T10:56:52.545Z,2.40
2019-04-21T10:59:18.784Z,2.53
2019-04-21T11:01:47.080Z,2.45
2019-04-21T11:04:23.677Z,2.20
2019-04-21T11:06:44.452Z,2.60
2019-04-21T11:09:11.421Z,2.50
2019-04-21T11:11:39.623Z,2.70
2019-04-21T11:14:06.487Z,2.60
2019-04-21T11:16:33.208Z,2.50
2019-04-21T11:18:59.986Z,2.70
2019-04-21T11:21:27.103Z,2.55
2019-04-21T11:23:54.153Z,2.43
2019-04-21T11:26:20.271Z,3.03
2019-04-21T11:28:47.418Z,3.00
2019-04-21T11:31:15.453Z,2.67
2019-04-21T11:33:41.155Z,2.70
2019-04-21T11:36:09.074Z,3.27
2019-04-21T11:38:58.076Z,3.10
2019-04-21T11:41:08.083Z,3.00
2019-04-21T11:43:35.173Z,2.50
2019-04-21T11:46:02.595Z,2.80
2019-04-21T11:48:30.263Z,2.33
2019-04-21T11:50:57.130Z,2.57
2019-04-21T11:53:23.160Z,2.47
2019-04-21T11:55:51.795Z,2.50
2019-04-21T11:58:18.068Z,3.10
2019-04-21T12:00:43.739Z,2.92
2019-04-21T12:03:13.579Z,5.03
2019-04-21T12:05:37.767Z,16.93
2019-04-21T12:08:16.193Z,9.43
2019-04-21T12:10:31.699Z,27.53
2019-04-21T12:12:59.251Z,4.33
2019-04-21T12:15:27.008Z,3.93
2019-04-21T12:17:52.580Z,4.70
2019-04-21T12:20:20.639Z,5.07
2019-04-21T12:22:47.426Z,6.33
2019-04-21T12:25:15.567Z,4.10
2019-04-21T12:27:43.764Z,3.23
2019-04-21T12:30:09.467Z,3.90
2019-04-21T12:32:46.299Z,4.13
2019-04-21T12:35:13.320Z,3.10
2019-04-21T12:37:40.645Z,3.33
2019-04-21T12:40:08.415Z,3.37
2019-04-21T12:42:34.575Z,3.00
2019-04-21T12:45:01.398Z,3.60
2019-04-21T12:47:28.064Z,3.27
2019-04-21T12:49:55.001Z,3.00
2019-04-21T12:52:21.943Z,2.50
2019-04-21T12:54:48.885Z,3.03
2019-04-21T12:57:17.086Z,2.70
2019-04-21T12:59:42.774Z,2.60
2019-04-21T13:02:09.722Z,2.50
2019-04-21T13:04:37.853Z,2.50
2019-04-21T13:07:03.735Z,2.60
2019-04-21T13:09:32.122Z,3.10
2019-04-21T13:11:57.532Z,2.50
2019-04-21T13:14:24.452Z,2.33
2019-04-21T13:16:51.740Z,2.50
2019-04-21T13:19:18.368Z,2.43
2019-04-21T13:21:45.839Z,3.33
2019-04-21T13:24:13.603Z,2.77
2019-04-21T13:26:45.660Z,3.07
2019-04-21T13:29:07.796Z,2.80
2019-04-21T13:31:34.210Z,2.47
2019-04-21T13:34:02.042Z,2.80
2019-04-21T13:36:27.737Z,2.60
2019-04-21T13:39:53.627Z,2.30
2019-04-21T13:41:57.056Z,2.50
2019-04-21T13:44:15.772Z,2.30
2019-04-21T13:46:43.012Z,2.67
2019-04-21T13:49:09.454Z,2.30
2019-04-21T13:51:36.070Z,2.70
2019-04-21T13:54:03.970Z,2.77
2019-04-21T13:56:29.345Z,3.00
2019-04-21T13:58:56.277Z,2.60
2019-04-21T14:01:23.527Z,2.50
2019-04-21T14:03:51.392Z,2.50
2019-04-21T14:06:18.345Z,2.33
2019-04-21T14:08:45.371Z,2.70
2019-04-21T14:11:11.396Z,2.37
2019-04-21T14:13:38.535Z,2.63
2019-04-21T14:16:06.161Z,2.70
2019-04-21T14:18:32.907Z,2.47
2019-04-21T14:20:58.774Z,2.43
2019-04-21T14:23:34.491Z,2.63
2019-04-21T14:25:53.361Z,2.37
2019-04-21T14:28:19.938Z,2.60
2019-04-21T14:30:48.211Z,2.63
2019-04-21T14:33:14.179Z,2.57
2019-04-21T14:35:41.070Z,2.20
2019-04-21T14:38:08.937Z,2.30
2019-04-21T14:40:35.547Z,2.17
2019-04-21T14:43:02.694Z,2.33
2019-04-21T14:45:34.722Z,2.53
2019-04-21T14:48:21.256Z,2.30
2019-04-21T14:51:09.263Z,2.70
2019-04-21T14:53:45.646Z,2.40
2019-04-21T14:56:13.264Z,2.30
2019-04-21T14:58:39.221Z,2.50
2019-04-21T15:01:06.103Z,2.40
2019-04-21T15:03:34.159Z,2.57
2019-04-21T15:06:01.070Z,2.50
2019-04-21T15:08:27.099Z,2.53
2019-04-21T15:10:54.958Z,2.63
2019-04-21T15:13:21.803Z,2.30
2019-04-21T15:15:47.939Z,2.70
2019-04-21T15:18:14.757Z,2.50
2019-04-21T15:20:42.528Z,2.63
2019-04-21T15:23:08.660Z,2.50
2019-04-21T15:25:36.277Z,2.50
2019-04-21T15:28:03.208Z,2.60
2019-04-21T15:30:29.599Z,2.63
2019-04-21T15:32:57.835Z,2.70
2019-04-21T15:35:24.666Z,2.40
2019-04-21T15:37:51.799Z,2.70
2019-04-21T15:40:25.309Z,2.67
2019-04-21T15:42:44.425Z,2.70
2019-04-21T15:45:12.609Z,2.50
2019-04-21T15:47:38.329Z,2.70
2019-04-21T15:50:10.170Z,2.80
2019-04-21T15:52:32.182Z,2.63
2019-04-21T15:55:05.193Z,2.60
2019-04-21T15:57:37.746Z,2.90
2019-04-21T16:00:18.420Z,2.60
2019-04-21T16:02:46.634Z,2.50
2019-04-21T16:05:12.990Z,2.60
2019-04-21T16:07:40.347Z,2.50
2019-04-21T16:10:09.893Z,2.77
2019-04-21T16:12:33.924Z,2.40
2019-04-21T16:15:00.727Z,2.40
2019-04-21T16:17:27.623Z,2.80
2019-04-21T16:19:54.341Z,2.50
2019-04-21T16:22:21.222Z,2.60
2019-04-21T16:24:48.145Z,2.60
2019-04-21T16:27:15.318Z,2.60
2019-04-21T16:29:42.012Z,2.50
2019-04-21T16:32:09.163Z,2.60
2019-04-21T16:34:45.321Z,2.47
2019-04-21T16:37:03.645Z,2.43
2019-04-21T16:39:31.461Z,2.50
2019-04-21T16:41:58.345Z,2.67
2019-04-21T16:44:25.301Z,2.70
2019-04-21T16:46:51.788Z,2.40
2019-04-21T16:49:19.883Z,2.47
2019-04-21T16:51:46.354Z,2.37
2019-04-21T16:54:19.989Z,2.60
2019-04-21T16:56:59.835Z,2.67
2019-04-21T16:59:32.691Z,2.37
2019-04-21T17:01:58.793Z,2.20
2019-04-21T17:04:26.482Z,2.30
2019-04-21T17:06:53.298Z,2.40
2019-04-21T17:09:20.819Z,2.17
2019-04-21T17:11:46.956Z,2.90
2019-04-21T17:14:34.607Z,2.47
2019-04-21T17:17:03.252Z,2.37
2019-04-21T17:19:17.324Z,2.70
2019-04-21T17:21:34.352Z,2.30
2019-04-21T17:24:02.119Z,2.40
2019-04-21T17:26:29.022Z,2.13
2019-04-21T17:28:56.472Z,2.20
2019-04-21T17:31:22.379Z,2.60
2019-04-21T17:33:59.206Z,2.50
2019-04-21T17:36:17.092Z,2.50
2019-04-21T17:38:43.987Z,2.37
2019-04-21T17:41:21.303Z,2.53
2019-04-21T17:43:39.269Z,2.37
2019-04-21T17:46:04.945Z,2.43
2019-04-21T17:48:32.465Z,2.60
2019-04-21T17:51:05.304Z,2.80
2019-04-21T17:53:44.868Z,2.47
2019-04-21T17:56:23.442Z,2.40
2019-04-21T17:58:52.370Z,2.00
2019-04-21T18:01:19.570Z,2.60
2019-04-21T18:03:53.520Z,2.43
2019-04-21T18:06:05.297Z,2.00
2019-04-21T18:08:40.798Z,2.40
2019-04-21T18:10:57.957Z,2.17
2019-04-21T18:13:17.586Z,2.30
2019-04-21T18:15:53.451Z,2.07
2019-04-21T18:18:06.641Z,1.83
2019-04-21T18:20:35.385Z,2.40
2019-04-21T18:23:22.808Z,2.10
2019-04-21T18:25:47.375Z,2.70
2019-04-21T18:28:06.459Z,2.60
2019-04-21T18:30:52.301Z,2.10
2019-04-21T18:33:27.227Z,2.47
2019-04-21T18:35:53.050Z,2.70
2019-04-21T18:38:29.585Z,2.20
2019-04-21T18:40:54.245Z,2.30
2019-04-21T18:46:20.519Z,2.40
2019-04-21T18:48:42.156Z,2.50
2019-04-21T18:51:34.646Z,2.20
2019-04-21T18:54:16.189Z,2.50
2019-04-21T18:56:23.077Z,2.67
2019-04-21T18:58:48.683Z,2.33
2019-04-21T19:01:22.856Z,2.00
2019-04-21T19:03:47.151Z,2.43
2019-04-21T19:06:16.416Z,2.40
2019-04-21T19:08:59.728Z,2.40
2019-04-21T19:11:23.802Z,2.20
2019-04-21T19:13:59.854Z,2.33
2019-04-21T19:16:38.918Z,2.47
2019-04-21T19:19:04.847Z,2.50
2019-04-21T19:21:10.175Z,2.50
2019-04-21T19:24:01.839Z,2.50
2019-04-21T19:26:25.160Z,2.57
2019-04-21T19:28:41.794Z,2.70
2019-04-21T19:31:11.329Z,2.73
2019-04-21T19:33:27.382Z,2.30
2019-04-21T19:35:39.354Z,2.33
2019-04-21T19:38:10.110Z,2.73
2019-04-21T19:40:49.471Z,3.53
2019-04-21T19:43:09.417Z,2.50
2019-04-21T19:45:36.761Z,2.73
2019-04-21T19:48:13.572Z,2.40
2019-04-21T19:50:41.203Z,2.57
2019-04-21T19:52:57.399Z,2.80
2019-04-21T19:55:16.077Z,2.30
2019-04-21T19:57:43.176Z,2.70
2019-04-21T20:00:10.070Z,2.63
2019-04-21T20:02:36.384Z,2.40
2019-04-21T20:05:07.919Z,2.47
2019-04-21T20:07:44.558Z,2.70
2019-04-21T20:10:20.772Z,2.20
2019-04-21T20:12:56.662Z,2.40
2019-04-21T20:15:23.300Z,2.80
2019-04-21T20:17:36.528Z,2.70
2019-04-21T20:19:44.845Z,2.77
2019-04-21T20:22:11.781Z,2.70
2019-04-21T20:24:40.042Z,2.93
2019-04-21T20:27:13.642Z,3.10
2019-04-21T20:29:48.795Z,3.00
2019-04-21T20:32:24.353Z,2.90
2019-04-21T20:34:46.350Z,2.90
2019-04-21T20:37:19.117Z,3.00
2019-04-21T20:39:26.141Z,3.40
2019-04-21T20:42:04.113Z,3.60
2019-04-21T20:44:30.943Z,3.93
2019-04-21T20:46:58.146Z,3.37
2019-04-21T20:49:20.237Z,3.57
2019-04-21T20:52:01.196Z,3.40
2019-04-21T20:54:20.888Z,3.47
2019-04-21T20:56:53.155Z,3.53
2019-04-21T20:59:12.156Z,4.00
2019-04-21T21:01:39.797Z,3.60
2019-04-21T21:04:07.661Z,3.17
2019-04-21T21:06:32.625Z,3.40
2019-04-21T21:09:01.389Z,2.80
2019-04-21T21:11:35.290Z,3.03
2019-04-21T21:14:00.379Z,3.00
2019-04-21T21:16:35.040Z,3.20
2019-04-21T21:19:04.961Z,2.93
2019-04-21T21:21:15.168Z,2.90
2019-04-21T21:23:42.775Z,2.80
2019-04-21T21:26:18.757Z,2.90
2019-04-21T21:28:32.631Z,2.77
2019-04-21T21:31:11.509Z,2.70
2019-04-21T21:33:38.696Z,2.60
2019-04-21T21:36:03.368Z,3.00
2019-04-21T21:38:28.123Z,3.07
2019-04-21T21:40:49.661Z,3.07
2019-04-21T21:43:08.278Z,2.83
2019-04-21T21:45:37.690Z,3.10
2019-04-21T21:48:11.479Z,2.83
2019-04-21T21:50:28.204Z,2.77
2019-04-21T21:53:00.511Z,2.90
2019-04-21T21:55:17.246Z,2.80
2019-04-21T21:57:49.905Z,2.97
2019-04-21T22:00:15.462Z,2.90
2019-04-21T22:02:45.564Z,3.40
2019-04-21T22:05:12.523Z,2.63
2019-04-21T22:07:33.721Z,3.20
2019-04-21T22:10:00.024Z,2.60
2019-04-21T22:12:29.201Z,2.53
2019-04-21T22:14:55.552Z,2.70
2019-04-21T22:17:34.717Z,2.87
2019-04-21T22:20:10.515Z,2.70
2019-04-21T22:22:27.812Z,2.80
2019-04-21T22:24:53.178Z,3.13
2019-04-21T22:27:09.481Z,2.73
2019-04-21T22:29:41.869Z,2.87
2019-04-21T22:32:11.353Z,2.70
2019-04-21T22:34:35.990Z,2.90
2019-04-21T22:37:16.132Z,3.00
2019-04-21T22:39:42.117Z,3.20
2019-04-21T22:42:03.161Z,2.87
2019-04-21T22:44:18.852Z,2.80
2019-04-21T22:46:57.345Z,3.07
2019-04-21T22:49:13.140Z,3.10
2019-04-21T22:51:44.910Z,2.90
2019-04-21T22:54:06.498Z,2.70
2019-04-21T22:56:35.234Z,3.20
2019-04-21T22:59:04.288Z,3.00
2019-04-21T23:01:33.527Z,2.80
2019-04-21T23:04:00.443Z,2.60
2019-04-21T23:06:25.863Z,3.60
2019-04-21T23:08:49.863Z,2.73
2019-04-21T23:11:16.659Z,2.80
2019-04-21T23:13:46.049Z,2.77
2019-04-21T23:16:09.974Z,3.03
2019-04-21T23:18:53.047Z,3.10
2019-04-21T23:21:17.315Z,2.87
2019-04-21T23:23:52.876Z,2.80
2019-04-21T23:26:19.336Z,3.30
2019-04-21T23:28:45.640Z,2.73
2019-04-21T23:31:12.341Z,2.87
2019-04-21T23:33:21.435Z,2.70
2019-04-21T23:35:49.286Z,3.20
2019-04-21T23:38:14.757Z,2.90
2019-04-21T23:40:50.260Z,3.00
2019-04-21T23:43:13.405Z,2.70
2019-04-21T23:45:38.244Z,3.00
2019-04-21T23:48:14.614Z,3.10
2019-04-21T23:50:37.859Z,3.30
2019-04-21T23:52:55.444Z,3.13
2019-04-21T23:55:23.235Z,2.97
2019-04-21T23:57:50.712Z,2.80
